en  de  es  pl  it  ru

Highscore

blendergeek

POI Feature Latitude Longitude Date
Argo TeaCafe37.3502-79.18052018-09-28 18:53:08
GarbanzoRestaurant37.35-79.18072018-09-28 18:53:07
Auntie Anne'sRestaurant37.35-79.18182018-09-27 19:35:20
Liberty Biblical MuseumMuseum37.3505-79.18212018-09-26 19:51:46
Anointed Kids Day CarePlace Of Worship37.3961-79.17112018-09-16 01:08:42
AutozoneCar Parts37.3999-79.16252018-09-14 19:46:59
Citi TrendsClothes37.4035-79.17032018-09-14 19:45:06
StaplesStationery37.3605-79.16822018-09-11 19:38:18
One Main FinancialMoney Lender37.36-79.16842018-09-11 19:38:17
WasabiRestaurant37.3598-79.16842018-09-11 19:38:17
Mi PatronRestaurant37.3604-79.16832018-09-11 19:38:17
Fashion Plus Beauty SupplyBeauty37.362-79.16912018-09-11 18:32:33
WeightWatchersFitness Station37.362-79.1692018-09-11 18:32:33
Chick-fil-AFast Food37.3576-79.17312018-09-06 00:40:17
Bella TrattoriaRestaurant37.3576-79.17322018-09-06 00:40:17
NaturalCafe37.3577-79.17322018-09-06 00:40:17
PremierFurniture37.3782-79.18462018-09-04 01:26:46
Pizza HutRestaurant37.3499-79.18172018-08-29 19:43:36
StarbucksCafe37.3501-79.18182018-08-29 19:43:36
Woodfire Pizza Co.Restaurant37.3502-79.18052018-08-29 19:35:28
Hey Cow!Fast Food37.3509-79.18032018-08-29 19:16:01
Dunkin' DonutsCafe37.3481-79.1822018-08-29 18:25:10
Baskin-RobbinsFast Food37.3482-79.18192018-08-29 18:25:10
Bookshop On The AvenueBooks37.392-79.17262018-06-15 17:21:28
Title MaxMoney Lender37.3523-79.18322018-04-09 00:45:43
Sky Nails & SpaBeauty37.3522-79.18332018-04-08 21:16:39
The Vitamin Shoppe37.3504-79.18442018-03-28 22:19:24
Sun Tan CityTanning Salon37.3503-79.18452018-03-28 22:19:23
Verizon WirelessMobile Phone37.3501-79.18462018-03-28 22:19:22
Cold Stone CreameryIce Cream37.3513-79.18392018-03-28 22:18:23
Sleep NumberFurniture37.3512-79.18392018-03-28 22:18:23
David James Homes37.3511-79.18392018-03-28 22:18:22
US CellularMobile Phone37.351-79.1842018-03-28 22:18:22
Panera BreadRestaurant37.3509-79.1842018-03-28 22:18:21
On Second ThoughtClothes37.3751-79.24992018-03-27 05:11:46
Panda ExpressRestaurant37.3456-79.18862018-03-26 21:39:44
Freedom Financi Group, LLCFinancial37.4018-79.16892017-11-14 20:34:15
In His Words Hair BoutiqueHairdresser37.4018-79.1692017-11-14 20:34:15
Family Hair CenterHairdresser37.402-79.16892017-11-14 20:34:15
Chestnut Hill BakeryBakery37.3768-79.18492017-11-09 20:03:27
SubwayFast Food37.3726-79.18372017-11-08 17:51:45
Ace Cash ExpressMoney Lender37.3727-79.18382017-11-08 17:51:45
Gantt InsuranceInsurance37.3726-79.18382017-11-08 17:51:45
Miracle EarHearing Aids37.3699-79.18262017-11-08 16:49:10
Express LaneConvenience37.3699-79.18312017-11-08 16:49:10
Star GingerRestaurant37.3511-79.18022017-10-23 17:59:38
The GridConvenience37.3506-79.18042017-10-23 17:59:38
The LighthousePlace Of Worship37.3933-79.16932017-10-18 21:49:47
MetroPCSMobile Phone37.3729-79.18482017-10-18 00:09:21
Check Into CashMoney Lender37.373-79.18492017-10-18 00:09:21
Waffle HouseRestaurant37.372-79.18432017-10-17 21:48:45
Dollar GeneralVariety Store37.3721-79.18312017-10-06 01:18:11
Carpet Land USACarpet37.3663-79.18322017-10-03 23:33:52
Mattress OutletBed37.3658-79.18362017-10-03 23:33:52
KotoRestaurant37.3717-79.18352017-10-03 20:06:51
Milan Indian CuisineRestaurant37.3729-79.18242017-10-03 20:06:50
Kroger PharmacyPharmacy37.375-79.18392017-10-03 20:06:49
Advance AmericaMoney Lender37.3741-79.18472017-10-03 20:06:18
Famous Anthony'sRestaurant37.3732-79.18412017-10-03 20:06:17
U Beauty SupplyCosmetics37.3724-79.18292017-10-03 20:06:16
Catherine's Plus SizesClothes37.3726-79.18262017-10-03 20:06:16
OneMainMoney Lender37.3725-79.18282017-10-03 20:06:16
Vanquish Beauty StudioBeauty37.3727-79.18222017-10-03 20:06:15
Laundry LandLaundry37.3727-79.18222017-10-03 20:06:15
Tuesday MorningCraft37.3726-79.18242017-10-03 20:06:15
CosmoProfCosmetics37.3728-79.18232017-10-03 20:06:14
Angel NailsBeauty37.373-79.18242017-10-03 20:06:14
Shoe ShowShoes37.3736-79.18282017-10-03 20:06:13
VA ABCAlcohol37.373-79.18242017-10-03 20:06:13
Ashley Furniture Home StoreFurniture37.3732-79.18252017-10-03 20:06:13
BurlingtonClothes37.374-79.18312017-10-03 20:06:12
Walgreen's PharmacyPharmacy37.3759-79.18532017-10-03 20:06:11
Progressive CutsHairdresser37.3982-79.16942017-09-28 22:38:42
Hughes InsuranceInsurance37.3982-79.16942017-09-28 22:38:42
Southern Insurance CompanyInsurance37.4005-79.16872017-09-28 22:38:42
Bright Images Print ShopCopyshop37.3968-79.17052017-09-28 18:44:36
Allied Cash AdvanceMoney Lender37.3982-79.17062017-09-27 23:42:24
Unique Fair Boutique SalonBeauty37.3969-79.17042017-09-26 23:56:02
Fort Hill Cemetary OfficeAdministrative37.3958-79.16592017-09-26 23:36:59
The Way of the Cross MinistriesPlace Of Worship37.396-79.16922017-09-26 23:35:44
King HouseRestaurant37.4013-79.16872017-09-25 23:38:12
B&B African Hair BraidingHairdresser37.4015-79.16912017-09-25 23:38:12
SubwayFast Food37.4013-79.16842017-09-25 23:38:12
Hill City CutzHairdresser37.4011-79.16962017-09-25 23:38:12
Unique StylesHairdresser37.4013-79.17082017-09-25 23:38:12
Power Recording StudioStudio37.4012-79.17072017-09-25 23:38:12
New Praise Temple of DeliverancePlace Of Worship37.4015-79.16922017-09-25 23:38:11
New Beginnings Salon & SpaBeauty37.4014-79.16912017-09-25 23:38:11
Katherine's Gifts, Avon, & MoreGift37.4015-79.16912017-09-25 23:38:11
F & L MarketMarketplace37.4011-79.16922017-09-25 23:38:11
Living WaterLaundry37.401-79.16932017-09-25 23:38:10
Off The Top Hair SalonHairdresser37.3699-79.18292017-09-25 20:53:38
California NailsBeauty37.3698-79.18282017-09-25 20:53:37
Berglund ToyotaCar37.3607-79.17992017-09-25 20:39:38
Baymont Inn & SuitesMotel37.37-79.18212017-09-25 20:39:32
GE Credit UnionBank37.3698-79.18272017-09-25 20:39:32
Fleet Pride Truck & Trailer PartsCar Parts37.3804-79.15932017-09-25 20:38:30
Grace Presbyterian ChurchPlace Of Worship37.3801-79.15812017-09-25 20:38:30
SpeedwayConvenience37.3601-79.18132017-09-25 03:00:34
Northvail Storage InnStorage Rental37.3649-79.18242017-09-25 03:00:34

blendergeek 100-200